Time;durP1;ratioP1;P1;durP2;ratioP2;P2;SDS_P1;SDS_P2;PMS_P1;PMS_P2;Temp;Humidity;BMP_temperature;BMP_pressure;BME280_temperature;BME280_humidity;BME280_pressure;Samples;Min_cycle;Max_cycle;Signal;HPM_P1;HPM_P2
2023/04/21 00:01:07;;;;;;;9.30;7.15;;;;;;;11.65;81.59;98905.28;4948128;29;20039;-93
2023/04/21 00:03:32;;;;;;;7.97;6.57;;;;;;;11.57;81.45;98902.41;4933618;29;20474;-94
2023/04/21 00:05:58;;;;;;;11.68;6.63;;;;;;;11.56;81.58;98912.41;4932792;28;20071;-93
2023/04/21 00:08:23;;;;;;;8.02;6.80;;;;;;;11.52;82.15;98917.56;4936261;28;20074;-93
2023/04/21 00:10:49;;;;;;;10.25;7.30;;;;;;;11.43;81.98;98894.19;4937044;28;20078;-93
2023/04/21 00:13:14;;;;;;;10.52;7.03;;;;;;;11.44;82.44;98893.13;4936420;28;20101;-95
2023/04/21 00:15:40;;;;;;;12.50;7.70;;;;;;;11.54;81.76;98906.50;4936467;28;20049;-94
2023/04/21 00:18:05;;;;;;;10.10;7.68;;;;;;;11.62;81.03;98905.03;4937466;28;20030;-94
2023/04/21 00:20:31;;;;;;;8.27;6.57;;;;;;;11.63;80.79;98888.56;4938037;28;20065;-94
2023/04/21 00:22:56;;;;;;;9.32;6.93;;;;;;;11.70;80.77;98897.13;4937040;28;20035;-93
2023/04/21 00:25:22;;;;;;;8.57;6.45;;;;;;;11.72;80.80;98892.25;4936160;28;20484;-93
2023/04/21 00:27:48;;;;;;;12.73;6.93;;;;;;;11.38;81.84;98889.66;4936437;28;20485;-94
2023/04/21 00:30:13;;;;;;;11.60;6.78;;;;;;;11.44;82.39;98901.19;4937729;28;20038;-95
2023/04/21 00:32:39;;;;;;;9.20;6.80;;;;;;;11.33;82.72;98890.53;4935796;28;20038;-94
2023/04/21 00:35:05;;;;;;;6.93;6.18;;;;;;;11.42;82.60;98893.38;4936015;28;20031;-94
2023/04/21 00:37:30;;;;;;;8.52;5.20;;;;;;;11.34;80.91;98880.53;4935463;28;20035;-94
2023/04/21 00:39:56;;;;;;;5.63;4.47;;;;;;;11.39;80.39;98887.75;4936688;28;20039;-94
2023/04/21 00:42:21;;;;;;;5.00;4.50;;;;;;;11.42;80.53;98887.19;4936218;28;20030;-94
2023/04/21 00:44:47;;;;;;;6.20;4.70;;;;;;;11.51;79.75;98880.88;4935833;28;20027;-94
2023/04/21 00:47:13;;;;;;;5.55;4.13;;;;;;;11.49;79.60;98869.56;4935948;28;20039;-94
2023/04/21 00:49:38;;;;;;;6.82;4.00;;;;;;;11.62;79.56;98880.75;4952267;28;20118;-95
2023/04/21 00:52:05;;;;;;;6.20;3.50;;;;;;;11.67;79.47;98880.72;4935728;28;20061;-94
2023/04/21 00:54:30;;;;;;;6.00;4.00;;;;;;;11.66;78.89;98863.75;4936129;28;20109;-94
2023/04/21 00:56:59;;;;;;;7.55;4.03;;;;;;;11.61;77.92;98853.00;4935994;28;20031;-94
2023/04/21 00:59:24;;;;;;;5.30;3.75;;;;;;;11.71;78.39;98860.19;4936654;28;20035;-94
2023/04/21 01:01:51;;;;;;;5.70;3.40;;;;;;;11.72;77.56;98864.47;4936414;28;20035;-94
2023/04/21 01:04:17;;;;;;;4.60;3.65;;;;;;;11.81;77.12;98884.34;4934780;28;20060;-93
2023/04/21 01:06:42;;;;;;;4.75;3.13;;;;;;;11.66;77.31;98854.84;4931232;29;20114;-94
2023/04/21 01:09:08;;;;;;;5.15;3.42;;;;;;;11.70;76.71;98858.56;4933290;29;20035;-94
2023/04/21 01:11:33;;;;;;;4.13;3.45;;;;;;;11.46;76.69;98828.94;4933145;29;20031;-94
2023/04/21 01:13:59;;;;;;;4.93;3.25;;;;;;;11.64;76.51;98843.53;4931489;29;20035;-94
2023/04/21 01:16:25;;;;;;;5.30;3.50;;;;;;;11.64;76.79;98847.06;4932553;29;20055;-93
2023/04/21 01:18:52;;;;;;;4.72;3.30;;;;;;;11.59;76.77;98838.22;4933751;29;20031;-94
2023/04/21 01:21:18;;;;;;;5.88;3.00;;;;;;;11.65;76.93;98850.53;4933778;29;20099;-94
2023/04/21 01:23:44;;;;;;;4.22;3.03;;;;;;;11.67;77.36;98856.44;4932518;29;20035;-93
2023/04/21 01:26:09;;;;;;;4.40;3.40;;;;;;;11.72;77.10;98865.28;4931830;29;20035;-94
2023/04/21 01:28:35;;;;;;;3.88;3.00;;;;;;;11.70;77.32;98858.56;4933183;29;20038;-94
2023/04/21 01:31:00;;;;;;;3.88;3.47;;;;;;;11.72;76.94;98861.78;4931298;29;20035;-93
2023/04/21 01:33:27;;;;;;;5.38;3.20;;;;;;;11.80;76.94;98860.34;4930762;29;20513;-94
2023/04/21 01:35:54;;;;;;;6.82;3.25;;;;;;;11.71;77.64;98855.59;4931400;29;20035;-94
2023/04/21 01:38:20;;;;;;;3.80;3.38;;;;;;;11.78;77.84;98854.44;4932054;29;20536;-94
2023/04/21 01:40:50;;;;;;;4.85;3.67;;;;;;;11.62;78.26;98841.16;4931456;29;20038;-93
2023/04/21 01:43:17;;;;;;;9.50;3.70;;;;;;;11.59;78.69;98849.00;4931098;29;20023;-93
2023/04/21 01:45:42;;;;;;;7.50;4.03;;;;;;;11.60;79.39;98864.06;4932244;29;20098;-94
2023/04/21 01:48:08;;;;;;;4.63;4.03;;;;;;;11.51;79.27;98855.81;4931785;29;20090;-94
2023/04/21 01:50:33;;;;;;;6.35;4.78;;;;;;;11.46;80.70;98866.66;4932471;29;20054;-94
2023/04/21 01:52:59;;;;;;;7.63;4.85;;;;;;;11.32;80.51;98848.47;4931584;29;20061;-94
2023/04/21 01:55:24;;;;;;;6.47;4.68;;;;;;;11.08;80.72;98826.91;4931919;29;20036;-95
2023/04/21 01:57:50;;;;;;;8.27;5.50;;;;;;;11.23;81.02;98844.81;4931934;29;20566;-94
2023/04/21 02:00:16;;;;;;;8.70;5.25;;;;;;;11.35;80.63;98844.41;4932688;29;20034;-94
2023/04/21 02:02:41;;;;;;;7.15;4.85;;;;;;;11.32;80.69;98847.69;4931681;29;20046;-95
2023/04/21 02:05:07;;;;;;;8.95;5.75;;;;;;;11.10;81.27;98811.25;4931300;29;20126;-95
2023/04/21 02:07:32;;;;;;;6.85;5.80;;;;;;;11.23;81.75;98834.03;4931892;29;20051;-95
2023/04/21 02:09:59;;;;;;;8.00;6.03;;;;;;;11.12;81.46;98819.88;4931617;29;20043;-94
2023/04/21 02:12:25;;;;;;;7.40;5.45;;;;;;;11.27;81.12;98836.97;4930581;29;20042;-95
2023/04/21 02:14:50;;;;;;;8.65;5.30;;;;;;;11.16;81.61;98828.16;4931687;29;20032;-95
2023/04/21 02:17:16;;;;;;;10.57;6.78;;;;;;;11.04;81.93;98814.28;4930470;29;20035;-95
2023/04/21 02:19:42;;;;;;;7.45;6.13;;;;;;;11.20;81.70;98847.25;4932423;29;20051;-94
2023/04/21 02:22:09;;;;;;;9.15;5.68;;;;;;;11.24;81.56;98846.41;4931786;29;20058;-94
2023/04/21 02:24:34;;;;;;;8.48;5.82;;;;;;;11.20;81.43;98834.59;4931051;29;20031;-94
2023/04/21 02:27:00;;;;;;;8.80;6.18;;;;;;;11.03;81.18;98804.59;4930692;29;20035;-95
2023/04/21 02:29:26;;;;;;;7.93;5.80;;;;;;;11.01;81.36;98806.78;4932010;29;20031;-94
2023/04/21 02:31:52;;;;;;;6.65;5.18;;;;;;;11.24;80.56;98819.44;4931853;29;20054;-94
2023/04/21 02:34:17;;;;;;;6.57;5.13;;;;;;;11.29;80.52;98814.03;4930413;29;20031;-95
2023/04/21 02:36:43;;;;;;;6.00;5.03;;;;;;;11.23;80.13;98814.38;4930429;29;20050;-94
2023/04/21 02:42:32;;;;;;;6.40;4.60;;;;;;;11.15;80.67;98823.06;4958719;29;20081;-94
2023/04/21 02:44:58;;;;;;;5.40;4.13;;;;;;;11.08;80.53;98816.13;4914285;29;20122;-95
2023/04/21 02:47:23;;;;;;;4.70;4.20;;;;;;;11.23;79.43;98825.94;4916079;29;20031;-95
2023/04/21 02:49:49;;;;;;;5.80;4.32;;;;;;;11.35;80.12;98846.28;4915442;29;20062;-94
2023/04/21 02:52:15;;;;;;;7.45;4.93;;;;;;;11.21;80.11;98819.25;4916779;29;20032;-95
2023/04/21 02:54:40;;;;;;;6.32;4.88;;;;;;;11.30;80.13;98828.28;4931456;29;20038;-95
2023/04/21 02:57:06;;;;;;;6.43;4.25;;;;;;;11.47;79.57;98841.31;4916535;29;20031;-94
2023/04/21 02:59:31;;;;;;;5.78;4.28;;;;;;;11.46;79.40;98832.41;4915523;29;20442;-94
2023/04/21 03:01:57;;;;;;;6.28;4.28;;;;;;;11.42;79.48;98819.81;4915304;29;20043;-95
2023/04/21 03:04:24;;;;;;;5.15;4.10;;;;;;;11.42;79.96;98831.38;4916970;29;20039;-94
2023/04/21 03:06:51;;;;;;;4.35;3.90;;;;;;;11.31;79.75;98814.53;4921935;29;20052;-95
2023/04/21 03:09:16;;;;;;;5.25;3.75;;;;;;;11.29;79.44;98799.75;4951631;29;20035;-95
2023/04/21 03:11:42;;;;;;;6.63;3.92;;;;;;;11.32;79.32;98796.47;4938395;29;20047;-95
2023/04/21 03:14:07;;;;;;;6.63;4.72;;;;;;;11.32;79.45;98807.25;4928426;29;20039;-94
2023/04/21 03:16:33;;;;;;;8.38;5.07;;;;;;;11.35;79.52;98816.66;4926500;29;20031;-95
2023/04/21 03:18:58;;;;;;;5.57;4.40;;;;;;;11.26;80.12;98821.88;4927991;29;20465;-95
2023/04/21 03:21:24;;;;;;;9.40;5.00;;;;;;;11.35;80.21;98827.44;4927674;29;20031;-95
2023/04/21 03:23:49;;;;;;;6.50;5.05;;;;;;;11.28;80.04;98812.41;4926723;29;20031;-94
2023/04/21 03:26:15;;;;;;;8.07;5.30;;;;;;;11.26;80.50;98821.88;4941355;29;20024;-90
2023/04/21 03:28:40;;;;;;;10.55;5.88;;;;;;;11.23;80.71;98822.44;4925915;29;20035;-91
2023/04/21 03:31:06;;;;;;;15.38;5.78;;;;;;;11.00;81.22;98797.91;4925176;29;20031;-90
2023/04/21 03:33:31;;;;;;;8.50;6.90;;;;;;;11.13;80.44;98820.66;4925617;29;20034;-92
2023/04/21 03:35:57;;;;;;;10.75;7.72;;;;;;;11.08;80.56;98837.69;4924734;29;20147;-90
2023/04/21 03:38:22;;;;;;;10.50;7.55;;;;;;;11.08;80.39;98824.22;4927521;29;20035;-91
2023/04/21 03:40:48;;;;;;;11.13;7.70;;;;;;;11.29;80.07;98853.66;4929070;29;20070;-91
2023/04/21 03:43:14;;;;;;;10.95;6.78;;;;;;;11.29;79.93;98848.25;4929028;29;20094;-91
2023/04/21 03:45:39;;;;;;;10.07;7.07;;;;;;;11.22;79.71;98828.91;4929099;29;20055;-95
2023/04/21 03:48:05;;;;;;;8.18;6.65;;;;;;;11.48;79.74;98861.78;4931049;29;20098;-95
2023/04/21 03:50:30;;;;;;;7.80;6.75;;;;;;;11.32;79.82;98844.97;4925718;29;20035;-91
2023/04/21 03:52:56;;;;;;;8.25;6.97;;;;;;;11.08;80.46;98847.63;4946240;29;20035;-95
2023/04/21 03:55:21;;;;;;;10.15;7.28;;;;;;;11.08;81.18;98851.16;4937993;28;20031;-94
2023/04/21 03:57:47;;;;;;;10.73;7.40;;;;;;;11.03;80.72;98834.22;4944537;28;20038;-94
2023/04/21 04:00:13;;;;;;;10.00;7.65;;;;;;;11.03;80.80;98843.13;4944487;29;20031;-94
2023/04/21 04:02:39;;;;;;;14.52;8.70;;;;;;;10.94;81.50;98833.25;4932936;29;20042;-94
2023/04/21 04:05:05;;;;;;;9.68;7.43;;;;;;;11.05;81.35;98849.03;4950854;28;20047;-95
2023/04/21 04:07:31;;;;;;;9.02;6.85;;;;;;;11.04;81.18;98855.50;4943670;29;20085;-94
2023/04/21 04:09:57;;;;;;;14.15;7.30;;;;;;;11.07;81.31;98864.91;4944775;28;20039;-96
2023/04/21 04:12:22;;;;;;;9.50;6.57;;;;;;;11.02;81.32;98851.47;4949431;28;20038;-94
2023/04/21 04:14:48;;;;;;;6.50;5.32;;;;;;;11.07;80.42;98870.28;4947539;28;20544;-95
2023/04/21 04:17:13;;;;;;;6.45;5.20;;;;;;;11.07;80.19;98875.69;4948625;28;20034;-89
2023/04/21 04:19:38;;;;;;;7.55;5.95;;;;;;;11.03;80.23;98864.66;4962306;28;20405;-89
2023/04/21 04:22:04;;;;;;;8.18;6.20;;;;;;;11.18;80.49;98879.88;4946168;28;20115;-89
2023/04/21 04:24:32;;;;;;;8.77;6.05;;;;;;;11.33;79.79;98879.75;4947475;28;20042;-91
2023/04/21 04:26:58;;;;;;;9.30;6.47;;;;;;;11.21;79.57;98868.53;4934208;28;20050;-89
2023/04/21 04:29:25;;;;;;;9.65;7.78;;;;;;;11.41;79.77;98889.06;4936232;28;20031;-89
2023/04/21 04:31:51;;;;;;;9.27;7.38;;;;;;;11.34;80.09;98872.44;4951108;28;20031;-89
2023/04/21 04:34:17;;;;;;;11.30;7.25;;;;;;;11.40;80.02;98884.78;4937729;28;20035;-91
2023/04/21 04:36:43;;;;;;;8.57;6.70;;;;;;;11.45;80.27;98892.81;4936258;28;20039;-89
2023/04/21 04:39:09;;;;;;;9.25;7.78;;;;;;;11.48;80.58;98877.97;4940838;28;20035;-90
2023/04/21 04:41:35;;;;;;;12.45;7.72;;;;;;;11.53;79.86;98883.28;4941305;28;20034;-90
2023/04/21 04:44:03;;;;;;;10.35;7.43;;;;;;;11.45;80.47;98879.31;4931506;29;20032;-91
2023/04/21 04:46:28;;;;;;;19.73;15.77;;;;;;;11.56;80.61;98879.22;4929226;29;20023;-92
2023/04/21 04:49:10;;;;;;;14.73;10.38;;;;;;;11.55;80.88;98891.09;4926429;29;20111;-90
2023/04/21 04:51:35;;;;;;;14.63;8.60;;;;;;;11.60;80.62;98891.03;4927238;29;20457;-90
2023/04/21 04:54:01;;;;;;;13.43;7.97;;;;;;;11.53;79.38;98886.78;4944382;28;20266;-90
2023/04/21 04:56:28;;;;;;;15.55;8.50;;;;;;;11.81;78.60;98900.50;4936614;28;20039;-90
2023/04/21 04:58:54;;;;;;;12.55;9.63;;;;;;;11.80;79.29;98888.09;4933086;28;20069;-90
2023/04/21 05:01:19;;;;;;;11.75;8.93;;;;;;;11.78;78.66;98871.41;4935102;28;20434;-90
2023/04/21 05:03:45;;;;;;;40.00;18.08;;;;;;;11.76;79.04;98854.72;4936818;29;20039;-96
2023/04/21 05:06:21;;;;;;;13.75;9.40;;;;;;;11.69;78.93;98862.34;4951785;28;20477;-96
2023/04/21 05:08:47;;;;;;;12.80;8.60;;;;;;;11.93;78.90;98890.16;4955742;28;20046;-96
2023/04/21 05:11:24;;;;;;;8.70;6.75;;;;;;;12.00;77.16;98889.00;4937461;28;20041;-91
2023/04/21 05:13:50;;;;;;;8.95;6.90;;;;;;;11.81;77.91;98872.75;4913993;29;20032;-90
2023/04/21 05:16:18;;;;;;;10.90;6.78;;;;;;;11.85;78.08;98871.88;4935691;28;20059;-96
2023/04/21 05:19:28;;;;;;;11.68;6.68;;;;;;;12.01;77.95;98894.06;4947046;28;20038;-95
2023/04/21 05:22:00;;;;;;;10.93;7.45;;;;;;;11.98;77.77;98878.47;4971090;28;20026;-93
2023/04/21 05:24:36;;;;;;;10.90;7.30;;;;;;;12.19;76.41;98902.50;4936518;28;20042;-94
2023/04/21 05:27:02;;;;;;;10.25;7.78;;;;;;;12.01;76.74;98866.28;4952295;28;20046;-96
2023/04/21 05:29:28;;;;;;;7.93;6.32;;;;;;;12.04;76.00;98880.03;4935571;28;20061;-93
2023/04/21 05:31:55;;;;;;;11.80;6.60;;;;;;;12.19;75.68;98897.09;4935007;28;20109;-94
2023/04/21 05:34:21;;;;;;;12.88;6.90;;;;;;;12.23;75.91;98884.63;4934582;28;20034;-92
2023/04/21 05:37:08;;;;;;;9.35;6.78;;;;;;;12.47;75.67;98920.47;4936977;28;20109;-95
2023/04/21 05:39:44;;;;;;;9.82;5.93;;;;;;;12.38;74.53;98889.00;4953429;28;20081;-95
2023/04/21 05:42:17;;;;;;;7.72;5.93;;;;;;;12.56;74.03;98890.09;4956283;28;20038;-96
2023/04/21 05:44:42;;;;;;;7.38;5.75;;;;;;;12.82;73.35;98899.41;4924927;29;20406;-89
2023/04/21 05:47:08;;;;;;;9.93;6.68;;;;;;;12.83;73.50;98892.13;4930907;28;20051;-88
2023/04/21 05:49:34;;;;;;;8.07;6.60;;;;;;;13.08;72.91;98909.81;4924926;28;20066;-88
2023/04/21 05:52:01;;;;;;;11.80;8.25;;;;;;;13.26;72.77;98916.22;4933618;28;20105;-89
2023/04/21 05:54:27;;;;;;;9.43;6.18;;;;;;;13.32;71.56;98896.97;4933844;28;20047;-90
2023/04/21 05:56:52;;;;;;;11.40;6.88;;;;;;;13.44;71.47;98906.50;4934297;28;20064;-89
2023/04/21 05:59:18;;;;;;;13.05;7.30;;;;;;;13.52;70.63;98898.47;4936107;28;20035;-95
2023/04/21 06:01:43;;;;;;;8.25;5.55;;;;;;;13.42;69.95;98906.78;4934250;28;20485;-90
2023/04/21 06:04:09;;;;;;;11.57;6.45;;;;;;;13.73;70.49;98914.31;4915793;29;20044;-94
2023/04/21 06:07:12;;;;;;;14.45;6.97;;;;;;;13.88;70.93;98914.03;4939002;28;20059;-95
2023/04/21 06:09:58;;;;;;;9.00;6.38;;;;;;;14.07;69.98;98913.91;4969918;28;20054;-95
2023/04/21 06:12:26;;;;;;;16.38;7.30;;;;;;;13.83;70.41;98887.06;4952864;28;20070;-94
2023/04/21 06:14:58;;;;;;;12.23;6.47;;;;;;;14.07;68.89;98899.56;4939542;28;20049;-96
2023/04/21 06:17:32;;;;;;;9.38;5.28;;;;;;;14.25;66.15;98917.59;4955657;28;20039;-96
2023/04/21 06:19:58;;;;;;;6.35;4.57;;;;;;;14.31;62.83;98889.28;4952115;28;20034;-96
2023/04/21 06:22:31;;;;;;;5.43;3.83;;;;;;;14.66;61.41;98910.50;4937457;28;20106;-96
2023/04/21 06:25:00;;;;;;;8.77;4.55;;;;;;;14.49;62.20;98890.25;4955956;28;20042;-96
2023/04/21 06:27:26;;;;;;;7.75;4.32;;;;;;;14.84;59.93;98919.56;4941077;28;20062;-96
2023/04/21 06:29:55;;;;;;;9.43;4.10;;;;;;;14.90;58.92;98915.59;4943089;28;20083;-96
2023/04/21 06:32:23;;;;;;;7.30;3.83;;;;;;;15.10;59.10;98920.53;4959021;28;20533;-96
2023/04/21 06:35:09;;;;;;;6.22;4.03;;;;;;;15.28;55.79;98934.22;4953065;28;20057;-96
2023/04/21 06:37:35;;;;;;;5.65;3.63;;;;;;;15.19;56.09;98927.91;4952831;28;20030;-95
2023/04/21 06:40:01;;;;;;;6.47;4.22;;;;;;;15.07;57.29;98918.44;4957423;28;20119;-95
2023/04/21 06:42:26;;;;;;;8.52;5.22;;;;;;;14.99;56.18;98918.41;4939827;28;20035;-96
2023/04/21 06:44:57;;;;;;;5.97;3.50;;;;;;;15.22;56.17;98930.03;4951949;28;20035;-95
2023/04/21 06:47:25;;;;;;;5.10;3.22;;;;;;;15.11;55.31;98924.84;4941336;28;20027;-94
2023/04/21 06:49:50;;;;;;;6.10;3.67;;;;;;;15.06;56.91;98913.31;4940198;28;20046;-94
2023/04/21 06:52:18;;;;;;;5.40;4.00;;;;;;;15.23;56.27;98913.44;4936649;28;20094;-95
2023/04/21 06:54:44;;;;;;;12.15;3.90;;;;;;;15.31;55.07;98922.72;4950786;28;20114;-95
2023/04/21 06:57:10;;;;;;;7.97;4.15;;;;;;;15.52;56.71;98950.94;4936692;28;20072;-95
2023/04/21 06:59:42;;;;;;;4.63;3.42;;;;;;;15.22;57.01;98913.75;4953729;28;20011;-94
2023/04/21 07:02:08;;;;;;;7.15;3.65;;;;;;;15.23;56.54;98924.28;4953013;28;20113;-94
2023/04/21 07:04:34;;;;;;;17.08;10.73;;;;;;;15.49;56.84;98950.75;4938607;28;20073;-93
2023/04/21 07:25:11;;;;;;;;;;;;;;;;;;;;;
2023/04/21 07:31:37;;;;;;;6.63;4.25;;;;;;;15.02;58.39;98975.50;4929191;29;20059;-96
2023/04/21 07:34:06;;;;;;;7.85;4.93;;;;;;;15.04;57.37;98961.63;4967817;28;20039;-93
2023/04/21 07:36:31;;;;;;;14.32;6.68;;;;;;;15.15;59.05;98985.50;4971594;28;20030;-93
2023/04/21 07:39:02;;;;;;;8.63;5.15;;;;;;;15.03;57.07;98960.03;4945967;28;20045;-93
2023/04/21 07:56:11;;;;;;;4.88;4.13;;;;;;;15.12;58.36;98963.59;4945334;29;20054;-94
2023/04/21 07:59:02;;;;;;;4.80;3.97;;;;;;;15.32;58.28;98987.53;4942818;29;20494;-93
2023/04/21 08:01:30;;;;;;;5.75;4.00;;;;;;;15.57;58.12;99007.00;4976971;28;20139;-93
2023/04/21 08:03:59;;;;;;;9.07;4.38;;;;;;;15.48;57.86;98981.69;4976812;29;20031;-93
2023/04/21 08:06:27;;;;;;;5.80;3.97;;;;;;;15.75;57.27;98984.28;4975233;29;20043;-92
2023/04/21 08:09:13;;;;;;;6.97;3.65;;;;;;;15.85;57.07;98991.34;4937193;29;20040;-91
2023/04/21 08:11:42;;;;;;;5.03;3.95;;;;;;;16.00;56.01;98998.28;4953033;28;20036;-93
2023/04/21 08:14:39;;;;;;;5.78;4.28;;;;;;;16.00;55.51;99019.19;4930876;29;20053;-92
2023/04/21 08:17:37;;;;;;;6.53;4.15;;;;;;;15.75;56.95;99016.06;4933448;29;20051;-88
2023/04/21 08:20:25;;;;;;;8.52;4.05;;;;;;;15.42;57.65;98991.06;4919439;29;21154;-89
2023/04/21 08:22:51;;;;;;;7.10;4.32;;;;;;;15.29;58.66;98990.88;4945689;29;20039;-88
2023/04/21 08:25:16;;;;;;;4.90;3.40;;;;;;;15.52;57.39;99017.97;4899245;29;20418;-88
2023/04/21 08:27:42;;;;;;;5.65;3.83;;;;;;;15.62;57.29;99023.13;4898738;29;20036;-89
2023/04/21 08:30:11;;;;;;;6.97;3.50;;;;;;;15.45;56.80;98991.28;4936852;28;20497;-89
2023/04/21 08:32:37;;;;;;;5.00;3.80;;;;;;;15.67;56.54;98997.78;4965351;28;20042;-88
2023/04/21 08:35:02;;;;;;;7.50;4.82;;;;;;;15.68;56.53;99023.81;4947832;28;20182;-89
2023/04/21 08:37:28;;;;;;;9.05;5.60;;;;;;;15.42;57.04;99005.47;4937626;28;20110;-93
2023/04/21 08:39:54;;;;;;;5.60;4.05;;;;;;;15.47;57.97;99015.38;4944261;28;20132;-89
2023/04/21 08:42:19;;;;;;;6.45;4.05;;;;;;;15.61;57.32;99004.47;4951316;28;20041;-89
2023/04/21 08:44:45;;;;;;;10.77;6.68;;;;;;;15.67;58.37;99016.78;4963445;28;20077;-89
2023/04/21 08:47:14;;;;;;;7.30;3.80;;;;;;;15.69;56.83;99003.72;4964654;28;20048;-89
2023/04/21 08:49:41;;;;;;;4.75;3.63;;;;;;;15.68;56.49;99010.25;4963205;28;20054;-87
2023/04/21 08:52:28;;;;;;;5.40;4.07;;;;;;;15.72;57.22;99030.25;4955252;28;20045;-89
2023/04/21 08:54:54;;;;;;;4.28;3.53;;;;;;;15.60;58.12;98994.69;4966569;28;20037;-88
2023/04/21 08:57:20;;;;;;;6.47;4.40;;;;;;;15.70;58.46;98994.44;4967334;28;20034;-89
2023/04/21 08:59:50;;;;;;;6.07;4.30;;;;;;;15.98;58.48;98996.97;4947322;28;20050;-91
2023/04/21 09:02:17;;;;;;;4.68;4.00;;;;;;;16.12;58.13;99009.38;4954469;28;20432;-89
2023/04/21 09:04:45;;;;;;;6.13;3.83;;;;;;;16.17;57.82;98994.84;4951865;28;20037;-89
2023/04/21 09:07:10;;;;;;;10.15;3.97;;;;;;;16.35;56.50;99018.22;4953596;28;20488;-90
2023/04/21 09:10:00;;;;;;;8.73;4.90;;;;;;;16.30;56.54;99003.97;4953531;28;20049;-88
2023/04/21 09:12:28;;;;;;;8.30;3.80;;;;;;;16.25;56.61;99007.66;4953977;28;20113;-89
2023/04/21 09:14:53;;;;;;;7.75;4.97;;;;;;;16.17;57.30;99003.78;4959531;28;20041;-89
2023/04/21 09:17:35;;;;;;;5.72;4.03;;;;;;;15.87;57.79;98993.75;4912315;29;20064;-88
2023/04/21 09:20:30;;;;;;;4.93;4.10;;;;;;;15.72;58.21;99014.75;4902014;29;20039;-89
2023/04/21 09:23:01;;;;;;;6.35;4.30;;;;;;;15.48;58.44;99006.94;4892640;29;20067;-89
2023/04/21 09:25:26;;;;;;;7.38;4.15;;;;;;;15.50;58.50;99017.47;4889603;29;20059;-90
2023/04/21 09:27:55;;;;;;;6.00;4.20;;;;;;;15.41;58.49;99005.78;4892019;29;20039;-89
2023/04/21 09:30:37;;;;;;;8.63;4.45;;;;;;;15.53;58.89;99028.50;4909407;29;20032;-91
2023/04/21 09:33:21;;;;;;;5.88;4.13;;;;;;;15.28;60.60;99021.00;4902048;29;20079;-87
2023/04/21 09:35:50;;;;;;;4.85;3.78;;;;;;;14.89;61.43;98998.03;4890076;29;20079;-90
2023/04/21 09:38:15;;;;;;;6.25;3.70;;;;;;;14.94;61.68;99025.84;4911587;29;20524;-91
2023/04/21 09:40:41;;;;;;;6.63;3.90;;;;;;;14.77;62.81;99019.47;4892891;29;20046;-88
2023/04/21 09:43:06;;;;;;;4.10;3.70;;;;;;;14.57;63.44;99018.81;4896763;29;20426;-89
2023/04/21 09:45:32;;;;;;;6.00;4.55;;;;;;;14.61;64.69;99035.25;4892128;29;20032;-88
2023/04/21 09:48:22;;;;;;;7.30;4.28;;;;;;;14.68;64.91;99041.06;4916472;29;20051;-94
2023/04/21 09:51:07;;;;;;;5.88;4.38;;;;;;;14.54;65.68;99028.28;4860827;29;20560;-94
2023/04/21 09:53:35;;;;;;;6.50;4.47;;;;;;;14.21;68.22;98994.31;4841489;29;20078;-93
2023/04/21 09:56:19;;;;;;;5.18;4.43;;;;;;;14.49;66.91;99022.19;4905663;29;20056;-92
2023/04/21 09:58:54;;;;;;;10.57;8.18;;;;;;;14.35;67.48;98987.78;4922407;29;20050;-92
2023/04/21 10:03:55;;;;;;;8.13;5.10;;;;;;;14.49;67.66;98998.59;5098495;23;20062;-94
2023/04/21 10:06:22;;;;;;;6.65;5.10;;;;;;;14.73;67.38;99014.66;4943744;29;20472;-93
2023/04/21 10:08:55;;;;;;;8.05;5.70;;;;;;;14.55;69.15;98992.00;4923741;29;20054;-95
2023/04/21 10:11:51;;;;;;;6.70;5.10;;;;;;;14.57;68.16;98983.59;4937302;29;20058;-94
2023/04/21 10:19:42;;;;;;;7.20;5.22;;;;;;;14.99;67.24;98976.13;4978554;28;20061;-94
2023/04/21 10:22:11;;;;;;;7.07;5.38;;;;;;;15.19;67.64;98988.41;4934399;29;20133;-93
2023/04/21 10:24:53;;;;;;;;;;;;;;;;;;;;;
2023/04/21 10:27:45;;;;;;;5.95;4.57;;;;;;;15.46;66.58;98970.34;4939089;29;20098;-94
2023/04/21 10:30:48;;;;;;;5.80;5.13;;;;;;;15.66;66.52;99012.47;4922436;29;20536;-89
2023/04/21 10:33:25;;;;;;;6.68;5.20;;;;;;;15.59;65.24;98996.63;4920181;29;20035;-89
2023/04/21 10:36:06;;;;;;;5.82;4.82;;;;;;;15.59;63.96;98983.06;4933148;29;20046;-94
2023/04/21 10:38:42;;;;;;;7.22;5.55;;;;;;;15.95;64.79;99007.34;4924846;29;20035;-94
2023/04/21 10:41:46;;;;;;;8.88;5.20;;;;;;;15.87;64.59;98977.47;4935430;29;20095;-96
2023/04/21 10:44:15;;;;;;;8.05;5.30;;;;;;;16.07;63.46;98997.84;4859655;29;20612;-88
2023/04/21 10:47:05;;;;;;;6.78;5.20;;;;;;;15.96;63.38;98976.38;4881693;29;20051;-89
2023/04/21 10:49:37;;;;;;;6.00;4.70;;;;;;;16.52;62.30;98997.66;4946094;29;20047;-89
2023/04/21 10:52:11;;;;;;;6.63;4.30;;;;;;;16.43;61.53;98969.63;4930533;29;20134;-92
2023/04/21 10:54:45;;;;;;;5.60;4.07;;;;;;;16.66;58.34;99000.22;4917210;29;20042;-88
2023/04/21 10:57:21;;;;;;;7.20;4.53;;;;;;;16.57;59.08;99000.19;4946125;29;20073;-88
2023/04/21 10:59:47;;;;;;;7.13;5.00;;;;;;;16.39;60.53;98990.41;4943904;28;20039;-89
2023/04/21 11:02:15;;;;;;;6.32;4.93;;;;;;;16.28;61.07;98974.41;4952111;29;20035;-89
2023/04/21 11:04:46;;;;;;;6.05;4.55;;;;;;;16.62;60.91;98977.50;4927841;29;20403;-88
2023/04/21 11:07:18;;;;;;;6.80;4.53;;;;;;;16.81;59.18;98982.66;4934932;29;20039;-89
2023/04/21 11:09:45;;;;;;;5.60;4.30;;;;;;;17.05;58.18;98987.63;4949867;29;20039;-90
2023/04/21 11:12:14;;;;;;;6.63;4.68;;;;;;;16.93;58.40;98989.06;4922636;29;20035;-87
2023/04/21 11:14:43;;;;;;;4.93;4.07;;;;;;;16.91;56.93;98987.78;4937323;29;20478;-92
2023/04/21 11:17:20;;;;;;;5.05;4.20;;;;;;;17.17;57.14;99002.16;4936801;29;20045;-91
2023/04/21 11:19:50;;;;;;;5.10;4.18;;;;;;;16.96;58.54;99003.94;4941173;29;20054;-89
2023/04/21 11:22:18;;;;;;;5.70;4.43;;;;;;;16.99;59.13;98981.53;4933552;29;20042;-90
2023/04/21 11:24:53;;;;;;;6.00;4.40;;;;;;;17.22;57.46;99000.41;4934867;29;20039;-89
2023/04/21 11:27:21;;;;;;;8.40;5.97;;;;;;;17.25;58.03;98969.84;4941499;29;20034;-90
2023/04/21 11:30:05;;;;;;;5.13;3.63;;;;;;;17.42;55.64;98983.41;4926377;29;20497;-90
2023/04/21 11:32:37;;;;;;;6.32;4.07;;;;;;;17.29;56.16;98962.63;4917431;29;20050;-91
2023/04/21 11:35:11;;;;;;;8.43;4.65;;;;;;;17.64;55.59;98935.31;4887874;29;20036;-93
2023/04/21 11:37:37;;;;;;;6.00;4.30;;;;;;;18.05;55.77;98980.97;4886338;29;20046;-93
2023/04/21 11:40:13;;;;;;;5.00;3.70;;;;;;;17.95;55.00;98941.31;4879749;29;20036;-92
2023/04/21 11:42:48;;;;;;;10.10;4.93;;;;;;;17.87;54.14;98969.38;4899386;29;20613;-92
2023/04/21 11:45:21;;;;;;;4.78;3.50;;;;;;;17.95;53.66;98976.72;4880774;29;20052;-92
2023/04/21 11:48:09;;;;;;;8.68;3.75;;;;;;;17.91;53.59;98951.25;4901613;29;20044;-91
2023/04/21 11:50:37;;;;;;;8.52;5.45;;;;;;;18.01;52.80;98965.63;4914933;29;20055;-90
2023/04/21 11:53:09;;;;;;;5.57;3.67;;;;;;;18.01;52.57;98968.34;4901763;29;20043;-91
2023/04/21 11:55:57;;;;;;;6.18;3.45;;;;;;;18.09;51.82;98970.22;4937904;29;20185;-90
2023/04/21 11:58:25;;;;;;;4.85;3.22;;;;;;;18.12;52.86;98955.97;4907582;29;20126;-91
2023/04/21 12:00:57;;;;;;;3.08;2.70;;;;;;;18.18;50.43;98932.84;4899087;29;20036;-91
2023/04/21 12:03:22;;;;;;;4.20;3.25;;;;;;;18.35;51.14;98940.13;4942688;29;20138;-91
2023/04/21 12:05:56;;;;;;;6.45;3.03;;;;;;;18.37;50.21;98941.38;4931963;29;20058;-92
2023/04/21 12:09:14;;;;;;;4.30;2.80;;;;;;;18.33;50.82;98950.56;4937555;29;20517;-95
2023/04/21 12:15:46;;;;;;;3.47;2.60;;;;;;;18.36;47.79;98939.78;4825914;29;20050;-89
2023/04/21 12:18:11;;;;;;;3.30;1.92;;;;;;;18.21;45.36;98936.84;4782908;29;20123;-91
2023/04/21 12:21:03;;;;;;;4.20;2.45;;;;;;;18.26;45.94;98937.44;4837436;29;20120;-90
2023/04/21 12:23:51;;;;;;;6.97;2.78;;;;;;;18.22;46.69;98944.69;4875240;29;20033;-88
2023/04/21 12:26:45;;;;;;;6.95;2.95;;;;;;;18.05;46.42;98931.94;4870962;29;20256;-90
2023/04/21 12:29:20;;;;;;;3.97;2.72;;;;;;;18.35;46.72;98970.91;4876223;29;20226;-91
2023/04/21 12:31:46;;;;;;;3.15;2.10;;;;;;;18.17;45.80;98934.75;4879878;29;20148;-93
2023/04/21 12:34:12;;;;;;;4.63;2.25;;;;;;;18.09;45.64;98941.06;4876061;29;20052;-91
2023/04/21 12:36:40;;;;;;;3.55;2.47;;;;;;;17.76;47.76;98917.19;4873965;29;20045;-90
2023/04/21 12:39:09;;;;;;;4.97;2.78;;;;;;;17.86;49.79;98956.88;4868454;29;20041;-90